createdAt,value
2018-01-30T00:00:10.656Z,6.36
2018-01-30T00:02:39.026Z,6.41
2018-01-30T00:05:07.361Z,6.41
2018-01-30T00:07:35.709Z,6.48
2018-01-30T00:10:04.859Z,6.47
2018-01-30T00:12:33.221Z,6.44
2018-01-30T00:15:01.538Z,6.45
2018-01-30T00:17:29.877Z,6.52
2018-01-30T00:19:58.239Z,6.53
2018-01-30T00:22:26.561Z,6.52
2018-01-30T00:24:56.068Z,6.44
2018-01-30T00:27:25.161Z,6.40
2018-01-30T00:29:55.041Z,6.38
2018-01-30T00:32:23.379Z,6.39
2018-01-30T00:34:51.721Z,6.29
2018-01-30T00:37:20.849Z,6.17
2018-01-30T00:39:49.213Z,6.15
2018-01-30T00:42:18.341Z,6.16
2018-01-30T00:44:46.666Z,6.17
2018-01-30T00:47:15.761Z,6.25
2018-01-30T00:49:44.214Z,6.25
2018-01-30T00:52:12.540Z,6.30
2018-01-30T00:54:40.897Z,6.28
2018-01-30T00:57:09.977Z,6.40
2018-01-30T00:59:38.332Z,6.47
2018-01-30T01:02:06.674Z,6.38
2018-01-30T01:04:35.090Z,6.39
2018-01-30T01:07:03.429Z,6.37
2018-01-30T01:09:31.772Z,6.36
2018-01-30T01:12:00.209Z,6.39
2018-01-30T01:14:28.577Z,6.36
2018-01-30T01:16:56.957Z,6.29
2018-01-30T01:19:25.289Z,6.19
2018-01-30T01:21:54.377Z,6.25
2018-01-30T01:24:22.745Z,6.27
2018-01-30T01:26:51.091Z,6.21
2018-01-30T01:29:19.438Z,6.27
2018-01-30T01:31:47.794Z,6.27
2018-01-30T01:34:16.176Z,6.31
2018-01-30T01:36:45.260Z,6.28
2018-01-30T01:39:13.592Z,6.29
2018-01-30T01:41:41.972Z,6.34
2018-01-30T01:44:10.310Z,6.35
2018-01-30T01:46:40.192Z,6.38
2018-01-30T01:49:08.513Z,6.41
2018-01-30T01:51:37.609Z,6.38
2018-01-30T01:54:05.980Z,6.39
2018-01-30T01:56:35.112Z,6.39
2018-01-30T01:59:03.504Z,6.38
2018-01-30T02:01:31.828Z,6.38
2018-01-30T02:04:00.922Z,6.33
2018-01-30T02:06:30.060Z,6.20
2018-01-30T02:08:58.540Z,6.18
2018-01-30T02:11:26.889Z,6.15
2018-01-30T02:13:55.268Z,6.13
2018-01-30T02:16:24.356Z,6.11
2018-01-30T02:18:53.480Z,6.14
2018-01-30T02:21:21.799Z,6.07
2018-01-30T02:23:50.168Z,6.02
2018-01-30T02:26:19.380Z,5.97
2018-01-30T02:28:48.492Z,6.11
2018-01-30T02:31:17.606Z,6.15
2018-01-30T02:33:45.940Z,6.19
2018-01-30T02:36:14.308Z,6.14
2018-01-30T02:38:42.636Z,6.17
2018-01-30T02:41:11.024Z,6.20
2018-01-30T02:43:39.364Z,6.20
2018-01-30T02:46:07.721Z,6.19
2018-01-30T02:48:36.096Z,6.23
2018-01-30T02:51:04.444Z,6.22
2018-01-30T02:53:32.820Z,6.23
2018-01-30T02:56:01.132Z,6.23
2018-01-30T02:58:29.460Z,6.25
2018-01-30T03:00:57.848Z,6.15
2018-01-30T03:03:26.952Z,6.08
2018-01-30T03:05:55.295Z,6.02
2018-01-30T03:08:24.397Z,5.96
2018-01-30T03:10:53.524Z,5.98
2018-01-30T03:13:21.948Z,6.05
2018-01-30T03:15:50.280Z,6.04
2018-01-30T03:18:18.600Z,6.07
2018-01-30T03:20:47.092Z,6.00
2018-01-30T03:23:16.211Z,6.06
2018-01-30T03:25:44.556Z,6.09
2018-01-30T03:28:12.963Z,6.11
2018-01-30T03:30:41.304Z,6.14
2018-01-30T03:33:09.679Z,6.20
2018-01-30T03:35:38.016Z,6.13
2018-01-30T03:38:06.339Z,6.20
2018-01-30T03:40:34.726Z,6.26
2018-01-30T03:43:03.067Z,6.26
2018-01-30T03:45:31.449Z,6.22
2018-01-30T03:47:59.804Z,6.26
2018-01-30T03:50:28.143Z,6.22
2018-01-30T03:52:57.291Z,6.14
2018-01-30T03:55:25.619Z,5.96
2018-01-30T03:57:54.716Z,5.88
2018-01-30T04:00:23.852Z,5.78
2018-01-30T04:02:52.210Z,5.87
2018-01-30T04:05:20.577Z,5.84
2018-01-30T04:07:48.955Z,5.83
2018-01-30T04:10:18.783Z,5.93
2018-01-30T04:12:47.145Z,5.92
2018-01-30T04:15:15.491Z,5.96
2018-01-30T04:17:43.827Z,5.95
2018-01-30T04:20:12.288Z,5.99
2018-01-30T04:22:40.803Z,6.05
2018-01-30T04:25:09.139Z,6.04
2018-01-30T04:27:37.507Z,6.00
2018-01-30T04:30:06.638Z,5.99
2018-01-30T04:32:34.951Z,6.04
2018-01-30T04:35:03.307Z,5.99
2018-01-30T04:37:31.639Z,5.95
2018-01-30T04:40:00.776Z,5.79
2018-01-30T04:42:29.115Z,5.78
2018-01-30T04:44:58.259Z,5.77
2018-01-30T04:47:26.619Z,5.69
2018-01-30T04:49:54.935Z,5.77
2018-01-30T04:52:23.311Z,5.79
2018-01-30T04:54:51.643Z,5.85
2018-01-30T04:57:20.127Z,5.85
2018-01-30T04:59:48.547Z,5.91
2018-01-30T05:02:16.919Z,5.87
2018-01-30T05:04:45.299Z,6.01
2018-01-30T05:07:13.655Z,6.01
2018-01-30T05:09:42.295Z,5.96
2018-01-30T05:12:10.667Z,5.93
2018-01-30T05:14:39.806Z,5.88
2018-01-30T05:17:08.895Z,5.79
2018-01-30T05:19:37.247Z,5.73
2018-01-30T05:22:05.678Z,5.89
2018-01-30T05:24:33.998Z,5.95
2018-01-30T05:27:03.139Z,6.01
2018-01-30T05:29:31.458Z,5.98
2018-01-30T05:31:59.786Z,5.98
2018-01-30T05:34:28.154Z,6.01
2018-01-30T05:36:56.494Z,5.94
2018-01-30T05:39:25.580Z,5.76
2018-01-30T05:41:53.958Z,5.67
2018-01-30T05:44:22.286Z,5.80
2018-01-30T05:46:50.691Z,5.82
2018-01-30T05:49:19.055Z,5.77
2018-01-30T05:51:47.375Z,5.69
2018-01-30T05:54:16.490Z,5.79
2018-01-30T05:56:45.810Z,5.77
2018-01-30T05:59:14.155Z,5.74
2018-01-30T06:01:43.278Z,5.79
2018-01-30T06:04:11.650Z,5.75
2018-01-30T06:06:40.003Z,5.81
2018-01-30T06:09:09.118Z,5.73
2018-01-30T06:11:37.483Z,5.81
2018-01-30T06:14:06.603Z,5.82
2018-01-30T06:16:34.974Z,5.84
2018-01-30T06:19:03.298Z,5.79
2018-01-30T06:21:31.743Z,5.81
2018-01-30T06:24:00.346Z,5.90
2018-01-30T06:26:28.678Z,5.92
2018-01-30T06:28:57.787Z,5.91
2018-01-30T06:31:26.175Z,5.96
2018-01-30T06:33:55.539Z,5.96
2018-01-30T06:36:24.666Z,5.95
2018-01-30T06:38:52.994Z,5.82
2018-01-30T06:41:21.341Z,5.77
2018-01-30T06:43:49.662Z,5.96
2018-01-30T06:46:18.038Z,5.96
2018-01-30T06:48:46.360Z,5.90
2018-01-30T06:51:15.455Z,5.98
2018-01-30T06:53:43.812Z,5.85
2018-01-30T06:56:12.135Z,5.94
2018-01-30T06:58:40.496Z,5.93
2018-01-30T07:01:08.817Z,5.96
2018-01-30T07:03:37.173Z,5.92
2018-01-30T07:06:05.545Z,5.98
2018-01-30T07:08:33.882Z,5.98
2018-01-30T07:11:02.194Z,5.97
2018-01-30T07:13:30.590Z,5.73
2018-01-30T07:15:58.996Z,5.80
2018-01-30T07:18:28.079Z,5.73
2018-01-30T07:20:56.450Z,5.84
2018-01-30T07:23:24.778Z,5.84
2018-01-30T07:25:53.106Z,5.83
2018-01-30T07:28:21.510Z,5.80
2018-01-30T07:30:50.641Z,5.82
2018-01-30T07:33:18.956Z,5.85
2018-01-30T07:35:47.269Z,5.96
2018-01-30T07:38:15.673Z,5.83
2018-01-30T07:40:44.045Z,5.90
2018-01-30T07:43:13.139Z,5.88
2018-01-30T07:45:41.517Z,5.78
2018-01-30T07:48:09.837Z,5.68
2018-01-30T07:50:38.162Z,5.57
2018-01-30T07:53:06.517Z,5.46
2018-01-30T07:55:35.657Z,5.62
2018-01-30T07:58:03.977Z,5.59
2018-01-30T08:00:32.338Z,5.63
2018-01-30T08:03:00.696Z,5.57
2018-01-30T08:05:29.013Z,5.60
2018-01-30T08:07:58.283Z,5.65
2018-01-30T08:10:26.607Z,5.63
2018-01-30T08:12:55.690Z,5.66
2018-01-30T08:15:24.809Z,5.72
2018-01-30T08:17:53.129Z,5.94
2018-01-30T08:20:21.477Z,6.13
2018-01-30T08:22:49.835Z,6.33
2018-01-30T08:25:18.209Z,6.44
2018-01-30T08:27:46.577Z,6.50
2018-01-30T08:30:15.702Z,6.53
2018-01-30T08:32:44.057Z,6.61
2018-01-30T08:35:13.141Z,6.65
2018-01-30T08:37:42.253Z,6.80
2018-01-30T08:40:10.622Z,6.83
2018-01-30T08:42:39.751Z,6.91
2018-01-30T08:45:08.113Z,6.98
2018-01-30T08:47:36.437Z,7.04
2018-01-30T08:50:04.793Z,7.06
2018-01-30T08:52:33.113Z,7.08
2018-01-30T08:55:02.262Z,7.08
2018-01-30T08:57:30.585Z,7.00
2018-01-30T08:59:58.909Z,7.00
2018-01-30T09:02:27.361Z,7.05
2018-01-30T09:04:56.485Z,7.01
2018-01-30T09:07:24.830Z,6.94
2018-01-30T09:09:53.905Z,6.97
2018-01-30T09:12:22.282Z,6.92
2018-01-30T09:14:50.597Z,6.89
2018-01-30T09:17:18.925Z,7.06
2018-01-30T09:19:47.373Z,7.22
2018-01-30T09:22:15.691Z,7.29
2018-01-30T09:24:44.005Z,7.21
2018-01-30T09:27:12.365Z,7.08
2018-01-30T09:29:41.493Z,7.17
2018-01-30T09:32:09.873Z,7.25
2018-01-30T09:34:38.193Z,7.35
2018-01-30T09:37:07.885Z,7.48
2018-01-30T09:39:36.253Z,7.61
2018-01-30T09:42:05.333Z,7.47
2018-01-30T09:44:33.685Z,7.45
2018-01-30T09:47:02.785Z,7.52
2018-01-30T09:49:31.140Z,7.47
2018-01-30T09:52:00.233Z,7.53
2018-01-30T09:54:29.357Z,7.52
2018-01-30T09:56:57.743Z,7.35
2018-01-30T09:59:26.090Z,7.34
2018-01-30T10:01:55.181Z,7.43
2018-01-30T10:04:24.310Z,7.33
2018-01-30T10:06:52.684Z,7.22
2018-01-30T10:09:21.001Z,7.25
2018-01-30T10:11:49.381Z,7.23
2018-01-30T10:14:17.707Z,7.26
2018-01-30T10:16:46.045Z,7.32
2018-01-30T10:19:14.394Z,7.43
2018-01-30T10:21:42.712Z,7.50
2018-01-30T10:24:11.073Z,7.49
2018-01-30T10:26:39.412Z,7.60
2018-01-30T10:29:07.740Z,7.73
2018-01-30T10:31:36.884Z,7.65
2018-01-30T10:34:05.233Z,7.58
2018-01-30T10:36:34.384Z,7.59
2018-01-30T10:39:02.715Z,7.70
2018-01-30T10:41:31.042Z,7.72
2018-01-30T10:43:59.416Z,7.85
2018-01-30T10:46:27.744Z,7.90
2018-01-30T10:48:56.085Z,7.78
2018-01-30T10:51:24.461Z,7.75
2018-01-30T10:53:52.779Z,7.49
2018-01-30T10:56:21.144Z,7.35
2018-01-30T10:58:50.376Z,7.23
2018-01-30T11:01:18.689Z,7.28
2018-01-30T11:03:47.040Z,7.41
2018-01-30T11:06:15.354Z,7.31
2018-01-30T11:08:43.730Z,7.31
2018-01-30T11:11:12.089Z,7.51
2018-01-30T11:13:40.442Z,7.64
2018-01-30T11:16:08.812Z,7.75
2018-01-30T11:18:37.137Z,8.07
2018-01-30T11:21:05.513Z,8.22
2018-01-30T11:23:33.839Z,8.34
2018-01-30T11:26:02.208Z,8.36
2018-01-30T11:28:30.548Z,8.39
2018-01-30T11:30:58.912Z,8.18
2018-01-30T11:33:27.287Z,8.20
2018-01-30T11:35:55.608Z,8.03
2018-01-30T11:38:24.691Z,7.83
2018-01-30T11:40:53.045Z,7.75
2018-01-30T11:43:21.359Z,7.55
2018-01-30T11:45:50.467Z,7.77
2018-01-30T11:48:18.816Z,7.66
2018-01-30T11:50:47.183Z,7.70
2018-01-30T11:53:15.521Z,7.63
2018-01-30T11:55:43.828Z,7.56
2018-01-30T11:58:12.177Z,7.59
2018-01-30T12:00:40.507Z,7.63
2018-01-30T12:03:09.667Z,7.63
2018-01-30T12:05:37.995Z,7.63
2018-01-30T12:08:07.105Z,7.65
2018-01-30T12:10:35.479Z,7.63
2018-01-30T12:13:03.804Z,7.52
2018-01-30T12:15:32.159Z,7.52
2018-01-30T12:18:00.486Z,7.54
2018-01-30T12:20:29.638Z,7.37
2018-01-30T12:22:57.951Z,7.42
2018-01-30T12:25:26.275Z,7.50
2018-01-30T12:27:54.652Z,7.63
2018-01-30T12:30:22.965Z,7.61
2018-01-30T12:32:51.351Z,7.46
2018-01-30T12:35:20.475Z,7.25
2018-01-30T12:37:49.584Z,7.36
2018-01-30T12:40:17.979Z,7.51
2018-01-30T12:42:46.343Z,7.55
2018-01-30T12:45:14.663Z,7.68
2018-01-30T12:47:42.975Z,7.68
2018-01-30T12:50:12.115Z,7.55
2018-01-30T12:52:40.424Z,7.44
2018-01-30T12:55:09.579Z,7.42
2018-01-30T12:57:38.731Z,7.61
2018-01-30T13:00:07.567Z,7.74
2018-01-30T13:02:35.908Z,7.81
2018-01-30T13:05:05.039Z,7.73
2018-01-30T13:07:33.363Z,7.75
2018-01-30T13:10:01.731Z,7.77
2018-01-30T13:12:30.111Z,7.82
2018-01-30T13:14:58.454Z,7.83
2018-01-30T13:17:26.767Z,7.85
2018-01-30T13:19:55.124Z,7.93
2018-01-30T13:22:23.907Z,7.94
2018-01-30T13:24:52.262Z,7.83
2018-01-30T13:27:20.596Z,7.97
2018-01-30T13:29:48.943Z,8.13
2018-01-30T13:32:17.267Z,8.21
2018-01-30T13:34:46.421Z,8.30
2018-01-30T13:37:15.493Z,8.31
2018-01-30T13:39:44.627Z,8.26
2018-01-30T13:42:12.939Z,8.28
2018-01-30T13:44:41.303Z,8.48
2018-01-30T13:47:10.391Z,8.63
2018-01-30T13:49:38.766Z,8.76
2018-01-30T13:52:07.103Z,8.80
2018-01-30T13:54:35.419Z,8.87
2018-01-30T13:57:03.770Z,8.92
2018-01-30T13:59:32.123Z,8.85
2018-01-30T14:02:00.446Z,8.78
2018-01-30T14:04:28.811Z,8.65
2018-01-30T14:06:57.139Z,8.52
2018-01-30T14:09:25.498Z,8.38
2018-01-30T14:11:54.583Z,8.40
2018-01-30T14:14:23.094Z,8.41
2018-01-30T14:16:51.442Z,8.48
2018-01-30T14:19:19.868Z,8.51
2018-01-30T14:21:48.191Z,8.50
2018-01-30T14:24:16.553Z,8.36
2018-01-30T14:26:44.872Z,8.12
2018-01-30T14:29:14.004Z,7.86
2018-01-30T14:31:42.351Z,7.75
2018-01-30T14:34:10.706Z,7.56
2018-01-30T14:36:39.038Z,7.62
2018-01-30T14:39:07.356Z,7.70
2018-01-30T14:41:35.715Z,7.74
2018-01-30T14:44:04.431Z,7.74
2018-01-30T14:46:33.553Z,7.78
2018-01-30T14:49:01.885Z,7.71
2018-01-30T14:51:30.258Z,7.62
2018-01-30T14:53:58.674Z,7.57
2018-01-30T14:56:27.798Z,7.56
2018-01-30T14:58:56.126Z,7.53
2018-01-30T15:01:24.650Z,7.54
2018-01-30T15:03:52.972Z,7.51
2018-01-30T15:06:21.306Z,7.49
2018-01-30T15:08:50.063Z,7.37
2018-01-30T15:11:19.192Z,7.17
2018-01-30T15:13:47.515Z,6.91
2018-01-30T15:16:17.399Z,6.80
2018-01-30T15:18:45.819Z,6.70
2018-01-30T15:21:14.927Z,6.60
2018-01-30T15:23:44.058Z,6.48
2018-01-30T15:26:12.402Z,6.32
2018-01-30T15:28:40.742Z,6.12
2018-01-30T15:31:09.109Z,6.05
2018-01-30T15:33:37.439Z,6.12
2018-01-30T15:36:06.309Z,6.23
2018-01-30T15:38:36.061Z,6.17
2018-01-30T15:41:04.410Z,6.04
2018-01-30T15:43:33.510Z,5.98
2018-01-30T15:46:01.902Z,5.77
2018-01-30T15:48:30.245Z,5.65
2018-01-30T15:50:59.741Z,5.69
2018-01-30T15:53:28.914Z,5.61
2018-01-30T15:55:57.238Z,5.69
2018-01-30T15:58:25.609Z,5.63
2018-01-30T16:00:53.954Z,5.66
2018-01-30T16:03:22.305Z,5.54
2018-01-30T16:05:50.633Z,5.70
2018-01-30T16:08:19.026Z,5.68
2018-01-30T16:10:47.359Z,5.57
2018-01-30T16:13:15.759Z,5.45
2018-01-30T16:15:44.109Z,5.41
2018-01-30T16:18:13.575Z,5.18
2018-01-30T16:20:41.978Z,5.06
2018-01-30T16:23:10.317Z,4.93
2018-01-30T16:25:40.213Z,5.16
2018-01-30T16:28:08.549Z,5.10
2018-01-30T16:30:37.013Z,5.03
2018-01-30T16:33:05.390Z,4.78
2018-01-30T16:35:33.719Z,4.54
2018-01-30T16:38:02.054Z,4.32
2018-01-30T16:40:30.817Z,4.16
2018-01-30T16:42:59.190Z,4.25
2018-01-30T16:45:28.353Z,4.11
2018-01-30T16:47:56.682Z,4.17
2018-01-30T16:50:25.038Z,4.01
2018-01-30T16:52:54.138Z,3.99
2018-01-30T16:55:23.267Z,3.84
2018-01-30T16:57:51.614Z,3.73
2018-01-30T17:00:19.985Z,3.71
2018-01-30T17:02:49.358Z,3.66
2018-01-30T17:05:17.702Z,3.57
2018-01-30T17:07:46.081Z,3.53
2018-01-30T17:10:14.463Z,3.47
2018-01-30T17:12:42.797Z,3.35
2018-01-30T17:15:11.938Z,3.31
2018-01-30T17:17:40.302Z,3.50
2018-01-30T17:20:08.654Z,3.38
2018-01-30T17:22:37.777Z,3.32
2018-01-30T17:25:06.906Z,3.26
2018-01-30T17:27:35.231Z,3.27
2018-01-30T17:30:03.902Z,3.23
2018-01-30T17:32:32.218Z,3.15
2018-01-30T17:35:00.557Z,3.18
2018-01-30T17:37:28.939Z,3.15
2018-01-30T17:39:57.314Z,3.13
2018-01-30T17:42:25.663Z,3.17
2018-01-30T17:44:55.025Z,3.16
2018-01-30T17:47:23.333Z,3.18
2018-01-30T17:49:51.681Z,3.18
2018-01-30T17:52:20.117Z,3.22
2018-01-30T17:54:48.474Z,3.27
2018-01-30T17:57:17.681Z,3.31
2018-01-30T17:59:46.014Z,3.24
2018-01-30T18:02:14.380Z,3.21
2018-01-30T18:04:43.674Z,3.21
2018-01-30T18:07:12.041Z,3.15
2018-01-30T18:09:41.137Z,3.19
2018-01-30T18:12:10.111Z,3.15
2018-01-30T18:14:39.808Z,3.19
2018-01-30T18:17:08.992Z,3.33
2018-01-30T18:19:37.370Z,3.32
2018-01-30T18:22:06.409Z,3.30
2018-01-30T18:24:36.258Z,3.26
2018-01-30T18:27:05.233Z,3.22
2018-01-30T18:29:33.549Z,3.23
2018-01-30T18:32:03.028Z,3.24
2018-01-30T18:34:31.370Z,3.17
2018-01-30T18:36:59.994Z,3.21
2018-01-30T18:39:28.341Z,3.25
2018-01-30T18:41:58.221Z,3.20
2018-01-30T18:44:26.606Z,3.08
2018-01-30T18:46:56.396Z,3.03
2018-01-30T18:49:26.193Z,3.00
2018-01-30T18:51:55.180Z,2.98
2018-01-30T18:54:26.162Z,2.92
2018-01-30T18:56:56.754Z,2.93
2018-01-30T18:59:25.336Z,2.90
2018-01-30T19:01:53.783Z,2.83
2018-01-30T19:04:22.304Z,2.76
2018-01-30T19:06:50.640Z,2.71
2018-01-30T19:09:19.029Z,2.74
2018-01-30T19:11:47.418Z,2.71
2018-01-30T19:14:15.806Z,2.59
2018-01-30T19:16:44.698Z,2.68
2018-01-30T19:19:14.541Z,2.64
2018-01-30T19:21:43.102Z,2.75
2018-01-30T19:24:12.249Z,2.73
2018-01-30T19:26:41.488Z,2.67
2018-01-30T19:29:10.360Z,2.64
2018-01-30T19:31:38.829Z,2.59
2018-01-30T19:34:07.160Z,2.52
2018-01-30T19:36:36.069Z,2.52
2018-01-30T19:39:05.226Z,2.51
2018-01-30T19:41:36.437Z,2.46
2018-01-30T19:44:05.573Z,2.38
2018-01-30T19:46:34.813Z,2.30
2018-01-30T19:49:03.332Z,2.26
2018-01-30T19:51:32.413Z,2.42
2018-01-30T19:54:01.557Z,2.60
2018-01-30T19:56:31.891Z,2.63
2018-01-30T19:59:01.695Z,2.64
2018-01-30T20:01:33.396Z,2.69
2018-01-30T20:04:01.805Z,2.74
2018-01-30T20:06:30.223Z,2.71
2018-01-30T20:08:59.599Z,2.67
2018-01-30T20:11:29.311Z,2.66
2018-01-30T20:13:58.665Z,2.63
2018-01-30T20:16:28.759Z,2.55
2018-01-30T20:18:58.193Z,2.61
2018-01-30T20:21:26.843Z,2.67
2018-01-30T20:23:55.399Z,2.85
2018-01-30T20:26:30.142Z,2.99
2018-01-30T20:29:04.015Z,3.06
2018-01-30T20:31:32.419Z,3.14
2018-01-30T20:34:00.819Z,3.17
2018-01-30T20:36:29.835Z,3.23
2018-01-30T20:38:59.133Z,3.27
2018-01-30T20:41:27.671Z,3.29
2018-01-30T20:43:58.032Z,3.33
2018-01-30T20:46:26.427Z,3.42
2018-01-30T20:48:55.099Z,3.42
2018-01-30T20:51:23.784Z,3.45
2018-01-30T20:53:54.595Z,3.48
2018-01-30T20:56:34.944Z,3.47
2018-01-30T20:59:05.805Z,3.51
2018-01-30T21:01:36.109Z,3.55
2018-01-30T21:04:04.551Z,3.60
2018-01-30T21:06:33.043Z,3.62
2018-01-30T21:09:01.451Z,3.69
2018-01-30T21:11:30.643Z,3.73
2018-01-30T21:14:00.499Z,3.81
2018-01-30T21:16:28.847Z,3.84
2018-01-30T21:19:00.659Z,3.83
2018-01-30T21:21:29.475Z,3.83
2018-01-30T21:23:59.475Z,3.85
2018-01-30T21:26:46.632Z,3.79
2018-01-30T21:29:16.587Z,3.83
2018-01-30T21:31:45.066Z,3.85
2018-01-30T21:34:13.487Z,3.86
2018-01-30T21:36:42.723Z,3.83
2018-01-30T21:39:11.132Z,3.81
2018-01-30T21:41:41.883Z,3.77
2018-01-30T21:44:11.463Z,3.76
2018-01-30T21:46:40.105Z,3.76
2018-01-30T21:49:09.105Z,3.72
2018-01-30T21:51:37.563Z,3.67
2018-01-30T21:54:06.752Z,3.46
2018-01-30T21:56:35.906Z,3.46
2018-01-30T21:59:04.467Z,3.38
2018-01-30T22:01:32.907Z,3.32
2018-01-30T22:04:01.267Z,3.27
2018-01-30T22:06:30.063Z,3.23
2018-01-30T22:08:59.010Z,3.21
2018-01-30T22:11:27.409Z,3.12
2018-01-30T22:13:55.758Z,3.12
2018-01-30T22:16:25.167Z,3.09
2018-01-30T22:18:53.727Z,3.07
2018-01-30T22:21:22.166Z,3.05
2018-01-30T22:23:50.526Z,3.03
2018-01-30T22:26:20.386Z,3.10
2018-01-30T22:28:48.803Z,3.05
2018-01-30T22:31:17.232Z,3.08
2018-01-30T22:33:46.612Z,3.09
2018-01-30T22:36:15.948Z,3.09
2018-01-30T22:38:44.327Z,3.12
2018-01-30T22:41:12.691Z,3.17
2018-01-30T22:43:41.119Z,3.18
2018-01-30T22:46:09.475Z,3.16
